createdAt,value
2018-04-24T00:01:22.982Z,99.90
2018-04-24T00:03:51.589Z,99.90
2018-04-24T00:06:20.172Z,99.90
2018-04-24T00:08:48.773Z,99.90
2018-04-24T00:11:18.109Z,99.90
2018-04-24T00:13:46.721Z,99.90
2018-04-24T00:16:14.989Z,99.90
2018-04-24T00:18:43.576Z,99.90
2018-04-24T00:21:12.161Z,99.90
2018-04-24T00:23:41.513Z,99.90
2018-04-24T00:26:10.145Z,99.90
2018-04-24T00:28:38.821Z,99.90
2018-04-24T00:31:07.507Z,99.90
2018-04-24T00:33:36.090Z,99.90
2018-04-24T00:36:04.721Z,99.90
2018-04-24T00:38:33.469Z,99.90
2018-04-24T00:41:02.081Z,99.90
2018-04-24T00:43:30.668Z,99.90
2018-04-24T00:45:59.225Z,99.90
2018-04-24T00:48:27.825Z,99.90
2018-04-24T00:50:56.407Z,99.90
2018-04-24T00:53:36.067Z,99.90
2018-04-24T00:56:04.784Z,99.90
2018-04-24T00:58:33.181Z,99.90
2018-04-24T01:01:01.784Z,99.90
2018-04-24T01:03:30.350Z,99.90
2018-04-24T01:05:58.960Z,99.90
2018-04-24T01:08:27.533Z,99.90
2018-04-24T01:10:56.933Z,99.90
2018-04-24T01:13:25.501Z,99.90
2018-04-24T01:15:54.100Z,99.90
2018-04-24T01:18:22.696Z,99.90
2018-04-24T01:20:51.278Z,99.90
2018-04-24T01:23:19.857Z,99.90
2018-04-24T01:25:48.451Z,99.90
2018-04-24T01:28:17.039Z,99.90
2018-04-24T01:30:45.576Z,99.90
2018-04-24T01:33:14.177Z,99.90
2018-04-24T01:35:42.764Z,99.90
2018-04-24T01:38:11.363Z,99.90
2018-04-24T01:40:39.961Z,99.90
2018-04-24T01:43:08.565Z,99.90
2018-04-24T01:45:37.931Z,99.90
2018-04-24T01:48:06.515Z,99.90
2018-04-24T01:50:35.183Z,99.90
2018-04-24T01:53:03.766Z,99.90
2018-04-24T01:58:36.101Z,99.90
2018-04-24T02:01:04.388Z,99.90
2018-04-24T02:03:32.990Z,99.90
2018-04-24T02:06:01.521Z,99.90
2018-04-24T02:08:30.120Z,99.90
2018-04-24T02:10:58.702Z,99.90
2018-04-24T02:13:27.297Z,99.90
2018-04-24T02:15:55.872Z,99.90
2018-04-24T02:18:24.445Z,99.90
2018-04-24T02:20:53.024Z,99.90
2018-04-24T02:23:21.643Z,99.90
2018-04-24T02:25:50.998Z,99.90
2018-04-24T02:28:19.577Z,99.90
2018-04-24T02:30:48.194Z,99.90
2018-04-24T02:33:16.769Z,99.90
2018-04-24T02:35:45.354Z,99.90
2018-04-24T02:38:13.713Z,99.90
2018-04-24T02:40:42.285Z,99.90
2018-04-24T02:43:10.855Z,99.90
2018-04-24T02:45:39.447Z,99.90
2018-04-24T02:48:08.025Z,99.90
2018-04-24T02:50:36.048Z,99.90
2018-04-24T02:53:05.443Z,99.90
2018-04-24T02:55:34.804Z,99.90
2018-04-24T02:58:03.381Z,99.90
2018-04-24T03:00:31.949Z,99.90
2018-04-24T03:03:00.552Z,99.90
2018-04-24T03:05:29.141Z,99.90
2018-04-24T03:07:57.749Z,99.90
2018-04-24T03:10:26.341Z,99.90
2018-04-24T03:12:55.131Z,99.90
2018-04-24T03:15:23.765Z,99.90
2018-04-24T03:17:52.303Z,99.90
2018-04-24T03:20:20.917Z,99.90
2018-04-24T03:22:49.488Z,99.90
2018-04-24T03:25:18.838Z,99.90
2018-04-24T03:27:47.430Z,99.90
2018-04-24T03:30:15.997Z,99.90
2018-04-24T03:32:44.580Z,99.90
2018-04-24T03:35:13.190Z,99.90
2018-04-24T03:37:41.789Z,99.90
2018-04-24T03:40:10.371Z,99.90
2018-04-24T03:42:40.179Z,99.90
2018-04-24T03:45:08.833Z,99.90
2018-04-24T03:47:37.421Z,99.90
2018-04-24T03:50:05.709Z,99.90
2018-04-24T03:52:34.268Z,99.90
2018-04-24T03:55:02.856Z,99.90
2018-04-24T03:57:31.413Z,99.90
2018-04-24T04:00:00.013Z,99.90
2018-04-24T04:02:28.634Z,99.90
2018-04-24T04:04:57.227Z,99.90
2018-04-24T04:07:25.814Z,99.90
2018-04-24T04:09:54.387Z,99.90
2018-04-24T04:12:23.005Z,99.90
2018-04-24T04:14:52.347Z,99.90
2018-04-24T04:17:32.082Z,99.90
2018-04-24T04:20:11.869Z,99.90
2018-04-24T04:22:51.658Z,99.90
2018-04-24T04:25:20.241Z,99.90
2018-04-24T04:27:48.901Z,99.90
2018-04-24T04:30:18.725Z,99.90
2018-04-24T04:32:47.313Z,99.90
2018-04-24T04:35:15.898Z,99.90
2018-04-24T04:37:49.865Z,99.90
2018-04-24T04:40:18.427Z,99.90
2018-04-24T04:42:47.030Z,99.90
2018-04-24T04:45:15.601Z,99.90
2018-04-24T04:47:44.208Z,99.90
2018-04-24T04:50:12.773Z,99.90
2018-04-24T04:52:41.341Z,99.90
2018-04-24T04:55:09.921Z,99.90
2018-04-24T04:57:38.497Z,99.90
2018-04-24T05:00:07.105Z,99.90
2018-04-24T05:02:35.685Z,99.90
2018-04-24T05:05:03.977Z,99.90
2018-04-24T05:07:32.544Z,99.90
2018-04-24T05:10:01.918Z,99.90
2018-04-24T05:12:30.493Z,99.90
2018-04-24T05:14:59.074Z,99.90
2018-04-24T05:17:27.676Z,99.90
2018-04-24T05:19:56.261Z,99.90
2018-04-24T05:22:24.877Z,99.90
2018-04-24T05:24:53.460Z,99.90
2018-04-24T05:27:22.112Z,99.90
2018-04-24T05:29:50.702Z,99.90
2018-04-24T05:32:19.289Z,99.90
2018-04-24T05:34:47.861Z,99.90
2018-04-24T05:37:16.453Z,99.90
2018-04-24T05:39:45.021Z,99.90
2018-04-24T05:42:13.609Z,99.90
2018-04-24T05:44:42.387Z,99.90
2018-04-24T05:47:11.002Z,99.90
2018-04-24T05:49:39.633Z,99.90
2018-04-24T05:52:08.238Z,99.90
2018-04-24T05:54:36.830Z,99.90
2018-04-24T05:57:05.145Z,99.90
2018-04-24T05:59:33.752Z,99.90
2018-04-24T06:02:03.124Z,99.90
2018-04-24T06:04:31.720Z,99.90
2018-04-24T06:07:00.309Z,99.90
2018-04-24T06:09:28.917Z,99.90
2018-04-24T06:11:58.236Z,99.90
2018-04-24T06:14:26.870Z,99.90
2018-04-24T06:16:55.417Z,99.90
2018-04-24T06:19:24.112Z,99.90
2018-04-24T06:21:52.885Z,99.90
2018-04-24T06:24:21.459Z,99.90
2018-04-24T06:26:50.057Z,99.90
2018-04-24T06:29:18.615Z,99.90
2018-04-24T06:31:47.253Z,99.90
2018-04-24T06:34:15.831Z,99.90
2018-04-24T06:36:44.425Z,99.90
2018-04-24T06:39:13.002Z,99.90
2018-04-24T06:41:41.586Z,99.90
2018-04-24T06:44:10.194Z,99.90
2018-04-24T06:46:38.765Z,99.90
2018-04-24T06:49:07.384Z,99.90
2018-04-24T06:51:36.757Z,99.90
2018-04-24T06:54:05.236Z,99.90
2018-04-24T06:56:33.814Z,99.90
2018-04-24T06:59:02.383Z,99.90
2018-04-24T07:01:30.969Z,99.90
2018-04-24T07:03:59.537Z,99.90
2018-04-24T07:06:28.178Z,99.90
2018-04-24T07:08:56.767Z,99.90
2018-04-24T07:11:25.392Z,99.90
2018-04-24T07:13:54.157Z,99.90
2018-04-24T07:16:22.750Z,99.90
2018-04-24T07:18:51.314Z,99.90
2018-04-24T07:21:19.908Z,99.90
2018-04-24T07:23:48.472Z,99.90
2018-04-24T07:26:17.096Z,99.90
2018-04-24T07:28:45.708Z,99.90
2018-04-24T07:31:14.300Z,99.90
2018-04-24T07:33:42.872Z,99.90
2018-04-24T07:36:11.410Z,99.90
2018-04-24T07:38:40.014Z,99.90
2018-04-24T07:41:08.704Z,99.90
2018-04-24T07:43:37.397Z,99.90
2018-04-24T07:46:06.077Z,99.90
2018-04-24T07:48:34.690Z,99.90
2018-04-24T07:51:03.269Z,99.90
2018-04-24T07:53:31.849Z,99.90
2018-04-24T07:56:00.458Z,99.90
2018-04-24T07:58:29.797Z,99.90
2018-04-24T08:00:58.382Z,99.90
2018-04-24T08:03:26.989Z,99.90
2018-04-24T08:05:55.561Z,99.90
2018-04-24T08:08:24.170Z,99.90
2018-04-24T08:10:52.754Z,99.90
2018-04-24T08:13:21.355Z,99.90
2018-04-24T08:15:50.694Z,99.90
2018-04-24T08:18:19.298Z,99.90
2018-04-24T08:20:47.893Z,99.90
2018-04-24T08:23:16.483Z,99.90
2018-04-24T08:25:45.094Z,99.90
2018-04-24T08:28:13.760Z,99.90
2018-04-24T08:30:52.045Z,99.90
2018-04-24T08:33:20.399Z,99.90
2018-04-24T08:35:48.994Z,99.90
2018-04-24T08:38:17.569Z,99.90
2018-04-24T08:40:46.158Z,99.90
2018-04-24T08:43:19.012Z,99.90
2018-04-24T08:45:47.682Z,99.90
2018-04-24T08:48:17.033Z,99.90
2018-04-24T08:50:45.597Z,99.90
2018-04-24T08:53:14.182Z,99.90
2018-04-24T08:55:42.747Z,99.90
2018-04-24T08:58:11.328Z,99.90
2018-04-24T09:00:40.684Z,99.90
2018-04-24T09:03:09.295Z,99.90
2018-04-24T09:05:37.735Z,99.90
2018-04-24T09:08:06.335Z,99.90
2018-04-24T09:10:34.948Z,99.90
2018-04-24T09:13:03.586Z,99.90
2018-04-24T09:15:42.348Z,99.90
2018-04-24T09:18:10.919Z,99.90
2018-04-24T09:20:39.489Z,99.90
2018-04-24T09:23:08.066Z,99.90
2018-04-24T09:25:36.678Z,99.90
2018-04-24T09:28:05.329Z,99.90
2018-04-24T09:30:33.905Z,99.90
2018-04-24T09:33:02.513Z,99.90
2018-04-24T09:35:31.063Z,99.90
2018-04-24T09:37:59.378Z,99.90
2018-04-24T09:40:27.983Z,99.90
2018-04-24T09:42:56.557Z,99.90
2018-04-24T09:45:25.144Z,99.90
2018-04-24T09:47:53.751Z,99.90
2018-04-24T09:50:23.077Z,99.90
2018-04-24T09:52:51.671Z,99.90
2018-04-24T09:55:20.254Z,99.90
2018-04-24T09:57:48.852Z,99.90
2018-04-24T10:00:22.910Z,99.90
2018-04-24T10:02:52.311Z,99.90
2018-04-24T10:05:21.688Z,99.90
2018-04-24T10:07:50.330Z,99.90
2018-04-24T10:10:22.648Z,99.90
2018-04-24T10:12:52.023Z,99.90
2018-04-24T10:15:20.608Z,99.90
2018-04-24T10:17:49.176Z,99.90
2018-04-24T10:20:17.769Z,99.90
2018-04-24T10:22:46.386Z,99.90
2018-04-24T10:25:14.981Z,99.90
2018-04-24T10:27:43.568Z,99.90
2018-04-24T10:30:13.060Z,99.90
2018-04-24T10:32:41.674Z,99.90
2018-04-24T10:35:10.240Z,95.10
2018-04-24T10:37:39.597Z,92.60
2018-04-24T10:40:08.189Z,92.50
2018-04-24T10:42:36.805Z,94.70
2018-04-24T10:45:06.099Z,94.90
2018-04-24T10:47:34.778Z,95.10
2018-04-24T10:50:03.461Z,93.20
2018-04-24T10:52:32.054Z,89.10
2018-04-24T10:55:01.408Z,89.60
2018-04-24T10:57:29.977Z,89.30
2018-04-24T10:59:58.585Z,82.50
2018-04-24T11:02:27.157Z,81.60
2018-04-24T11:04:55.783Z,75.50
2018-04-24T11:07:24.385Z,73.40
2018-04-24T11:09:53.772Z,70.30
2018-04-24T11:12:22.462Z,70.50
2018-04-24T11:14:51.816Z,66.70
2018-04-24T11:17:20.429Z,66.90
2018-04-24T11:19:49.082Z,66.40
2018-04-24T11:22:17.666Z,64.40
2018-04-24T11:24:46.298Z,61.60
2018-04-24T11:27:14.849Z,59.50
2018-04-24T11:29:43.429Z,58.10
2018-04-24T11:32:12.026Z,57.50
2018-04-24T11:34:40.672Z,58.50
2018-04-24T11:37:09.264Z,58.00
2018-04-24T11:39:37.885Z,57.00
2018-04-24T11:42:06.500Z,55.10
2018-04-24T11:44:35.094Z,54.20
2018-04-24T11:47:03.511Z,54.00
2018-04-24T11:49:32.854Z,55.90
2018-04-24T11:52:01.628Z,55.70
2018-04-24T11:54:30.210Z,54.10
2018-04-24T11:56:58.815Z,54.50
2018-04-24T11:59:28.124Z,54.60
2018-04-24T12:01:57.433Z,54.70
2018-04-24T12:04:26.026Z,52.00
2018-04-24T12:06:54.364Z,52.20
2018-04-24T12:09:23.021Z,51.90
2018-04-24T12:11:51.635Z,51.30
2018-04-24T12:14:20.234Z,50.50
2018-04-24T12:16:48.825Z,48.90
2018-04-24T12:19:17.429Z,48.60
2018-04-24T12:21:46.025Z,48.20
2018-04-24T12:24:14.604Z,49.20
2018-04-24T12:26:43.185Z,49.80
2018-04-24T12:29:11.753Z,47.90
2018-04-24T12:31:40.346Z,46.70
2018-04-24T12:34:08.923Z,45.70
2018-04-24T12:36:37.515Z,45.90
2018-04-24T12:39:06.414Z,42.50
2018-04-24T12:49:03.772Z,42.20
2018-04-24T12:59:01.064Z,41.70
2018-04-24T13:01:29.835Z,42.70
2018-04-24T13:03:58.516Z,42.90
2018-04-24T13:06:27.216Z,41.70
2018-04-24T13:08:55.781Z,41.70
2018-04-24T13:11:24.397Z,41.00
2018-04-24T13:18:52.162Z,40.90
2018-04-24T13:21:20.761Z,42.30
2018-04-24T13:23:49.347Z,44.90
2018-04-24T13:26:23.833Z,46.20
2018-04-24T13:28:52.435Z,46.80
2018-04-24T13:31:21.098Z,47.50
2018-04-24T13:33:49.809Z,48.20
2018-04-24T13:36:18.346Z,48.60
2018-04-24T13:38:46.908Z,47.50
2018-04-24T13:41:15.596Z,45.80
2018-04-24T13:43:44.302Z,45.10
2018-04-24T13:46:12.888Z,45.90
2018-04-24T13:48:42.228Z,46.20
2018-04-24T13:51:10.821Z,46.20
2018-04-24T13:53:39.380Z,43.80
2018-04-24T13:56:08.029Z,43.40
2018-04-24T14:01:06.223Z,39.80
2018-04-24T14:16:03.626Z,37.90
2018-04-24T14:18:32.223Z,37.80
2018-04-24T14:43:28.361Z,38.50
2018-04-24T14:45:56.955Z,38.40
2018-04-24T15:13:21.940Z,36.70
2018-04-24T15:15:50.530Z,37.00
2018-04-24T15:18:19.097Z,36.60
2018-04-24T15:20:47.746Z,37.20
2018-04-24T15:23:16.341Z,38.80
2018-04-24T15:25:44.985Z,41.00
2018-04-24T15:28:13.606Z,42.30
2018-04-24T15:30:42.300Z,42.90
2018-04-24T15:33:10.895Z,43.70
2018-04-24T15:35:39.573Z,44.70
2018-04-24T15:38:08.249Z,45.30
2018-04-24T15:40:39.419Z,45.40
2018-04-24T15:43:08.591Z,46.00
2018-04-24T15:45:37.134Z,46.00
2018-04-24T15:48:06.612Z,47.20
2018-04-24T15:50:35.296Z,47.10
2018-04-24T15:53:04.422Z,47.80
2018-04-24T15:55:33.042Z,47.90
2018-04-24T15:58:01.632Z,46.90
2018-04-24T16:00:30.234Z,47.70
2018-04-24T16:02:58.799Z,48.20
2018-04-24T16:05:28.353Z,48.60
2018-04-24T16:07:56.939Z,48.60
2018-04-24T16:10:25.237Z,49.40
2018-04-24T16:12:53.792Z,50.00
2018-04-24T16:15:22.368Z,49.40
2018-04-24T16:17:50.946Z,48.90
2018-04-24T16:20:19.553Z,48.70
2018-04-24T16:22:49.317Z,49.10
2018-04-24T16:25:17.618Z,48.70
2018-04-24T16:27:46.174Z,49.20
2018-04-24T16:30:15.789Z,48.80
2018-04-24T16:32:44.417Z,49.50
2018-04-24T16:35:13.832Z,50.40
2018-04-24T16:37:42.433Z,50.40
2018-04-24T16:40:11.027Z,50.60
2018-04-24T16:42:39.666Z,50.60
2018-04-24T16:45:08.259Z,50.60
2018-04-24T16:47:37.548Z,50.40
2018-04-24T16:50:06.111Z,50.40
2018-04-24T16:52:34.729Z,51.50
2018-04-24T16:55:03.787Z,52.10
2018-04-24T16:57:32.386Z,52.10
2018-04-24T17:00:00.955Z,52.60
2018-04-24T17:02:29.576Z,52.90
2018-04-24T17:04:58.961Z,52.80
2018-04-24T17:07:27.537Z,52.80
2018-04-24T17:09:56.112Z,53.40
2018-04-24T17:12:24.705Z,53.80
2018-04-24T17:14:53.337Z,54.00
2018-04-24T17:17:21.947Z,54.30
2018-04-24T17:19:50.531Z,53.80
2018-04-24T17:22:19.137Z,54.10
2018-04-24T17:24:47.694Z,53.80
2018-04-24T17:27:16.307Z,54.80
2018-04-24T17:29:44.883Z,56.00
2018-04-24T17:32:13.458Z,58.50
2018-04-24T17:34:42.066Z,56.40
2018-04-24T17:37:11.616Z,58.90
2018-04-24T17:39:40.360Z,59.00
2018-04-24T17:42:08.894Z,59.30
2018-04-24T17:44:37.472Z,63.50
2018-04-24T17:47:06.069Z,65.90
2018-04-24T17:49:34.629Z,70.10
2018-04-24T17:52:03.172Z,73.00
2018-04-24T17:54:31.680Z,75.70
2018-04-24T17:57:01.032Z,79.20
2018-04-24T17:59:29.636Z,79.00
2018-04-24T18:01:58.140Z,78.60
2018-04-24T18:04:27.451Z,81.70
2018-04-24T18:06:55.787Z,81.70
2018-04-24T18:09:24.398Z,83.30
2018-04-24T18:11:52.902Z,85.00
2018-04-24T18:14:22.199Z,88.90
2018-04-24T18:16:51.575Z,90.40
2018-04-24T18:19:20.128Z,90.40
2018-04-24T18:21:48.656Z,92.40
2018-04-24T18:24:17.924Z,99.30
2018-04-24T18:26:46.461Z,99.30
2018-04-24T18:29:14.971Z,99.90
2018-04-24T18:31:43.536Z,99.90
2018-04-24T18:34:12.116Z,99.90
2018-04-24T18:36:40.620Z,99.90
2018-04-24T18:39:09.148Z,99.90
2018-04-24T18:41:37.656Z,99.90
2018-04-24T18:44:06.191Z,99.90
2018-04-24T18:46:34.701Z,99.90
2018-04-24T18:49:03.338Z,99.90
2018-04-24T18:51:37.441Z,99.90
2018-04-24T18:54:05.712Z,99.90
2018-04-24T18:56:34.285Z,99.90
2018-04-24T18:59:02.827Z,99.90
2018-04-24T19:01:31.377Z,99.90
2018-04-24T19:03:59.564Z,99.90
2018-04-24T19:06:28.108Z,99.90
2018-04-24T19:08:56.633Z,99.90
2018-04-24T19:11:26.034Z,99.90
2018-04-24T19:13:54.434Z,99.90
2018-04-24T19:16:23.049Z,99.90
2018-04-24T19:18:57.009Z,99.90
2018-04-24T19:21:25.589Z,99.90
2018-04-24T19:23:54.193Z,99.90
2018-04-24T19:26:23.532Z,99.90
2018-04-24T19:28:52.132Z,99.90
2018-04-24T19:31:26.177Z,99.90
2018-04-24T19:33:54.930Z,99.90
2018-04-24T19:36:23.554Z,99.90
2018-04-24T19:38:58.239Z,99.90
2018-04-24T19:41:32.340Z,99.90
2018-04-24T19:44:01.171Z,99.90
2018-04-24T19:46:29.787Z,99.90
2018-04-24T19:49:07.409Z,99.90
2018-04-24T19:51:36.135Z,99.90
2018-04-24T19:54:04.693Z,99.90
2018-04-24T19:56:33.292Z,99.90
2018-04-24T19:59:02.010Z,99.90
2018-04-24T20:01:31.345Z,99.90
2018-04-24T20:03:59.918Z,99.90
2018-04-24T20:06:30.510Z,99.90
2018-04-24T20:08:59.117Z,99.90
2018-04-24T20:11:27.727Z,99.90
2018-04-24T20:13:56.336Z,99.90
2018-04-24T20:16:24.902Z,99.90
2018-04-24T20:18:53.538Z,99.90
2018-04-24T20:21:22.856Z,99.90
2018-04-24T20:23:58.855Z,99.90
2018-04-24T20:26:27.451Z,99.90
2018-04-24T20:28:56.036Z,99.90
2018-04-24T20:31:24.622Z,99.90
2018-04-24T20:33:52.974Z,99.90
2018-04-24T20:36:21.577Z,99.90
2018-04-24T20:38:50.169Z,99.90
2018-04-24T20:41:20.725Z,99.90
2018-04-24T20:43:49.300Z,99.90
2018-04-24T20:46:17.936Z,99.90
2018-04-24T20:48:46.208Z,99.90
2018-04-24T20:51:14.789Z,99.90
2018-04-24T20:53:43.452Z,99.90
2018-04-24T20:56:14.993Z,99.90
2018-04-24T20:58:43.740Z,99.90
2018-04-24T21:01:14.341Z,99.90
2018-04-24T21:03:54.062Z,99.90
2018-04-24T21:06:23.389Z,99.90
2018-04-24T21:08:51.958Z,99.90
2018-04-24T21:11:20.520Z,99.90
2018-04-24T21:13:49.119Z,99.90
2018-04-24T21:16:18.465Z,99.90
2018-04-24T21:18:47.873Z,99.90
2018-04-24T21:21:16.477Z,99.90
2018-04-24T21:23:45.068Z,99.90
2018-04-24T21:26:13.688Z,99.90
2018-04-24T21:28:42.430Z,99.90
2018-04-24T21:31:11.005Z,99.90
2018-04-24T21:33:39.570Z,99.90
2018-04-24T21:36:08.162Z,99.90
2018-04-24T21:38:36.794Z,99.90
2018-04-24T21:41:06.179Z,99.90
2018-04-24T21:43:38.897Z,99.90
2018-04-24T21:46:07.591Z,99.90
2018-04-24T21:48:36.181Z,99.90
2018-04-24T21:51:04.757Z,99.90
2018-04-24T21:53:33.317Z,99.90
2018-04-24T21:56:01.901Z,99.90
2018-04-24T21:58:30.501Z,99.90
2018-04-24T22:00:59.102Z,99.90
2018-04-24T22:03:27.726Z,99.90
2018-04-24T22:05:56.315Z,99.90
2018-04-24T22:08:24.869Z,99.90
2018-04-24T22:10:53.481Z,99.90
2018-04-24T22:13:22.877Z,99.90
2018-04-24T22:15:51.590Z,99.90
2018-04-24T22:18:20.149Z,99.90
2018-04-24T22:20:48.740Z,99.90
2018-04-24T22:23:18.124Z,99.90
2018-04-24T22:25:46.710Z,99.90
2018-04-24T22:28:15.727Z,99.90
2018-04-24T22:30:44.445Z,99.90
2018-04-24T22:33:13.117Z,99.90
2018-04-24T22:35:41.851Z,99.90
2018-04-24T22:38:10.416Z,99.90
2018-04-24T22:40:39.029Z,99.90
2018-04-24T22:43:07.602Z,99.90
2018-04-24T22:45:36.221Z,99.90
2018-04-24T22:48:04.856Z,99.90
2018-04-24T22:50:33.431Z,99.90
2018-04-24T22:53:02.009Z,99.90
2018-04-24T22:55:30.601Z,99.90
2018-04-24T22:57:59.203Z,99.90
2018-04-24T23:00:27.748Z,99.90
2018-04-24T23:02:56.336Z,99.90
2018-04-24T23:05:24.885Z,99.90
2018-04-24T23:07:54.249Z,99.90
2018-04-24T23:10:34.170Z,99.90
2018-04-24T23:13:13.941Z,99.90
2018-04-24T23:15:53.839Z,99.90
2018-04-24T23:18:33.697Z,99.90
2018-04-24T23:21:01.101Z,99.90
2018-04-24T23:23:29.670Z,99.90
2018-04-24T23:25:58.249Z,99.90
2018-04-24T23:28:26.864Z,99.90
2018-04-24T23:30:55.446Z,99.90
2018-04-24T23:33:24.016Z,99.90
2018-04-24T23:35:52.613Z,99.90
2018-04-24T23:38:21.187Z,99.90
2018-04-24T23:40:49.182Z,99.90
2018-04-24T23:43:17.772Z,99.90
2018-04-24T23:45:47.150Z,99.90
2018-04-24T23:48:15.776Z,99.90
2018-04-24T23:50:44.358Z,99.90
2018-04-24T23:53:12.953Z,99.90
2018-04-24T23:55:41.515Z,99.90
2018-04-24T23:58:10.556Z,99.90
